Methodist Camp, Iowa
Current Conditions -  °F | °C
As of 9:54 AM on Thursday 23 Oct 2014 (Local Time) from KMJQ Reporting Station
Haze Haze  
Wind Chill: 52°   Ceiling: 100
Heat Index: 52°   Visibility: 0.75mi
Dew Point: 50°   Wind: 6mph
Humidity: 94%   Direction: 230°SW
Pressure: 30.04"   Gusts: NA
Location:  43.4265°N, 95.1547°W
Report Text: KMJQ 231454Z AUTO 23005KT 3/4SM BR OVC001 11/10 A3004 RMK AO2
Loading
Personal Weather Stations






























Interactive Weather Map
Tropical Storm Tracking
New forecast layout! Learn more

10-Day Weather Forecast

Advertisements
Track Severe Weather on mobile